createdAt,value
2019-04-16T00:00:25.516Z,19.52
2019-04-16T00:02:58.052Z,30.00
2019-04-16T00:05:43.183Z,36.38
2019-04-16T00:08:27.162Z,50.38
2019-04-16T00:13:26.328Z,48.30
2019-04-16T00:16:01.168Z,55.95
2019-04-16T00:18:32.801Z,38.67
2019-04-16T00:21:22.431Z,28.73
2019-04-16T00:23:59.571Z,28.05
2019-04-16T00:26:31.190Z,17.15
2019-04-16T00:29:03.191Z,17.87
2019-04-16T00:31:37.068Z,18.42
2019-04-16T00:34:08.549Z,20.30
2019-04-16T00:36:40.034Z,17.32
2019-04-16T00:39:11.667Z,20.85
2019-04-16T00:41:43.157Z,19.50
2019-04-16T00:44:16.797Z,19.60
2019-04-16T00:46:48.335Z,19.45
2019-04-16T00:49:19.864Z,18.23
2019-04-16T00:51:51.365Z,16.75
2019-04-16T00:54:22.881Z,15.48
2019-04-16T00:56:54.452Z,17.35
2019-04-16T00:59:25.923Z,14.30
2019-04-16T01:01:57.456Z,15.53
2019-04-16T01:04:28.951Z,15.65
2019-04-16T01:07:00.975Z,16.32
2019-04-16T01:09:32.745Z,15.55
2019-04-16T01:12:05.046Z,15.15
2019-04-16T01:14:37.574Z,17.12
2019-04-16T01:17:09.356Z,17.67
2019-04-16T01:19:41.820Z,20.23
2019-04-16T01:22:16.084Z,17.87
2019-04-16T01:24:51.393Z,21.82
2019-04-16T01:27:22.231Z,20.05
2019-04-16T01:29:53.948Z,27.00
2019-04-16T01:32:42.447Z,25.92
2019-04-16T01:35:31.265Z,29.27
2019-04-16T01:38:19.685Z,27.10
2019-04-16T01:40:55.677Z,32.48
2019-04-16T01:43:28.218Z,32.53
2019-04-16T01:46:01.558Z,29.25
2019-04-16T01:48:38.670Z,34.03
2019-04-16T01:51:08.364Z,35.52
2019-04-16T01:53:40.307Z,35.73
2019-04-16T01:56:12.039Z,32.45
2019-04-16T01:58:43.586Z,32.55
2019-04-16T02:01:15.159Z,41.08
2019-04-16T02:03:48.870Z,43.02
2019-04-16T02:06:19.908Z,44.60
2019-04-16T02:08:52.294Z,33.80
2019-04-16T02:11:23.801Z,41.08
2019-04-16T02:13:56.557Z,36.70
2019-04-16T02:16:28.069Z,40.50
2019-04-16T02:19:01.372Z,32.93
2019-04-16T02:21:33.042Z,30.77
2019-04-16T02:24:04.661Z,29.45
2019-04-16T02:26:36.422Z,28.02
2019-04-16T02:29:08.283Z,32.23
2019-04-16T02:31:41.187Z,30.52
2019-04-16T02:34:13.049Z,28.98
2019-04-16T02:36:44.574Z,34.40
2019-04-16T02:39:16.166Z,37.20
2019-04-16T02:41:48.026Z,38.45
2019-04-16T02:44:19.986Z,38.60
2019-04-16T02:46:53.128Z,28.25
2019-04-16T02:49:25.269Z,33.50
2019-04-16T02:51:58.704Z,30.30
2019-04-16T02:54:40.958Z,30.40
2019-04-16T02:57:27.890Z,31.60
2019-04-16T03:00:03.337Z,33.92
2019-04-16T03:02:40.700Z,35.98
2019-04-16T03:05:22.460Z,40.80
2019-04-16T03:07:54.088Z,37.08
2019-04-16T03:10:25.694Z,41.77
2019-04-16T03:12:58.816Z,33.53
2019-04-16T03:15:48.724Z,37.85
2019-04-16T03:18:21.968Z,40.48
2019-04-16T03:20:56.651Z,34.80
2019-04-16T03:23:28.381Z,34.88
2019-04-16T03:26:01.910Z,37.98
2019-04-16T03:28:35.122Z,36.90
2019-04-16T03:31:09.627Z,38.70
2019-04-16T03:33:48.262Z,39.48
2019-04-16T03:36:14.601Z,41.40
2019-04-16T03:38:48.755Z,40.60
2019-04-16T03:41:20.326Z,39.30
2019-04-16T03:43:51.976Z,42.83
2019-04-16T03:46:28.683Z,39.65
2019-04-16T03:49:00.495Z,41.65
2019-04-16T03:51:35.272Z,38.55
2019-04-16T03:54:06.792Z,36.28
2019-04-16T03:56:39.912Z,38.92
2019-04-16T03:59:12.335Z,54.85
2019-04-16T04:01:46.189Z,55.65
2019-04-16T04:04:17.700Z,53.23
2019-04-16T04:06:49.661Z,54.73
2019-04-16T04:09:22.179Z,52.27
2019-04-16T04:11:54.418Z,51.55
2019-04-16T04:14:25.962Z,55.78
2019-04-16T04:16:57.506Z,56.05
2019-04-16T04:19:32.078Z,47.78
2019-04-16T04:22:03.661Z,60.55
2019-04-16T04:24:35.428Z,50.03
2019-04-16T04:27:07.071Z,47.25
2019-04-16T04:29:38.874Z,44.40
2019-04-16T04:32:10.619Z,46.80
2019-04-16T04:34:42.280Z,47.13
2019-04-16T04:37:13.894Z,55.12
2019-04-16T04:39:45.442Z,50.20
2019-04-16T04:42:18.912Z,49.05
2019-04-16T04:44:50.192Z,57.15
2019-04-16T04:47:21.797Z,55.50
2019-04-16T04:49:53.472Z,48.95
2019-04-16T04:52:27.394Z,48.25
2019-04-16T04:54:58.496Z,59.20
2019-04-16T04:57:32.040Z,52.80
2019-04-16T05:00:05.618Z,63.38
2019-04-16T05:02:38.954Z,68.47
2019-04-16T05:05:12.060Z,64.17
2019-04-16T05:07:43.814Z,62.45
2019-04-16T05:10:15.413Z,67.17
2019-04-16T05:12:52.608Z,59.15
2019-04-16T05:15:23.057Z,52.88
2019-04-16T05:17:55.848Z,44.88
2019-04-16T05:20:29.828Z,51.80
2019-04-16T05:23:01.511Z,45.75
2019-04-16T05:25:34.367Z,43.55
2019-04-16T05:28:06.161Z,39.03
2019-04-16T05:30:40.370Z,36.80
2019-04-16T05:33:12.069Z,46.40
2019-04-16T05:35:44.712Z,44.83
2019-04-16T05:38:16.447Z,50.65
2019-04-16T05:40:48.132Z,49.10
2019-04-16T05:43:22.590Z,49.73
2019-04-16T05:45:52.948Z,43.90
2019-04-16T05:48:26.281Z,39.03
2019-04-16T05:50:59.996Z,43.52
2019-04-16T05:53:32.549Z,43.13
2019-04-16T05:56:08.630Z,42.85
2019-04-16T05:58:41.137Z,42.35
2019-04-16T06:01:20.527Z,42.58
2019-04-16T06:03:54.352Z,46.90
2019-04-16T06:06:28.569Z,48.75
2019-04-16T06:08:59.219Z,54.90
2019-04-16T06:11:35.684Z,48.25
2019-04-16T06:14:05.990Z,68.62
2019-04-16T06:16:56.809Z,77.95
2019-04-16T06:19:33.771Z,39.23
2019-04-16T06:22:10.233Z,30.95
2019-04-16T06:24:58.454Z,40.60
2019-04-16T06:27:48.124Z,37.73
2019-04-16T06:30:24.131Z,44.85
2019-04-16T06:32:57.248Z,34.55
2019-04-16T06:35:43.298Z,43.02
2019-04-16T06:38:16.788Z,35.08
2019-04-16T06:40:55.944Z,50.60
2019-04-16T06:43:31.933Z,36.08
2019-04-16T06:46:05.500Z,43.63
2019-04-16T06:51:34.941Z,33.38
2019-04-16T06:54:25.563Z,64.40
2019-04-16T06:57:18.091Z,43.60
2019-04-16T06:59:59.445Z,41.88
2019-04-16T07:03:01.665Z,49.05
2019-04-16T07:05:34.546Z,46.10
2019-04-16T07:10:48.940Z,45.70
2019-04-16T07:13:20.600Z,44.83
2019-04-16T07:15:56.420Z,47.93
2019-04-16T07:18:25.721Z,45.75
2019-04-16T07:21:03.058Z,50.35
2019-04-16T07:23:35.243Z,41.98
2019-04-16T07:26:07.376Z,46.10
2019-04-16T07:28:40.652Z,39.05
2019-04-16T07:31:31.819Z,38.75
2019-04-16T07:36:32.208Z,41.37
2019-04-16T07:39:28.841Z,37.08
2019-04-16T07:42:11.780Z,39.95
2019-04-16T07:44:54.753Z,41.77
2019-04-16T07:47:41.419Z,40.23
2019-04-16T07:50:22.419Z,37.13
2019-04-16T07:52:58.792Z,36.35
2019-04-16T07:55:38.166Z,31.37
2019-04-16T07:58:10.825Z,27.27
2019-04-16T08:00:42.450Z,28.60
2019-04-16T08:03:14.207Z,20.97
2019-04-16T08:05:49.612Z,23.12
2019-04-16T08:08:24.349Z,23.18
2019-04-16T08:10:56.112Z,21.40
2019-04-16T08:13:34.281Z,19.35
2019-04-16T08:16:06.671Z,21.52
2019-04-16T08:18:40.369Z,20.55
2019-04-16T08:21:13.636Z,22.62
2019-04-16T08:23:52.874Z,18.02
2019-04-16T08:26:23.236Z,21.23
2019-04-16T08:28:56.612Z,17.37
2019-04-16T08:31:30.624Z,18.75
2019-04-16T08:34:05.406Z,22.90
2019-04-16T08:36:38.171Z,21.42
2019-04-16T08:39:12.334Z,18.87
2019-04-16T08:41:45.256Z,21.73
2019-04-16T08:44:17.900Z,21.27
2019-04-16T08:46:50.577Z,20.62
2019-04-16T08:49:24.244Z,20.55
2019-04-16T08:51:59.764Z,20.82
2019-04-16T08:54:32.858Z,22.80
2019-04-16T08:57:06.223Z,21.40
2019-04-16T08:59:44.960Z,22.65
2019-04-16T09:02:19.163Z,20.23
2019-04-16T09:04:55.151Z,20.43
2019-04-16T09:07:42.935Z,21.10
2019-04-16T09:10:23.326Z,22.77
2019-04-16T09:13:03.036Z,21.62
2019-04-16T09:15:30.767Z,15.83
2019-04-16T09:18:04.483Z,8.78
2019-04-16T09:20:38.469Z,10.28
2019-04-16T09:23:11.327Z,15.90
2019-04-16T09:26:13.519Z,12.53
2019-04-16T09:28:55.851Z,18.23
2019-04-16T09:31:35.787Z,37.13
2019-04-16T09:34:16.096Z,28.73
2019-04-16T09:36:50.260Z,29.75
2019-04-16T09:39:24.185Z,25.17
2019-04-16T09:41:56.806Z,19.03
2019-04-16T09:44:34.970Z,27.10
2019-04-16T09:47:05.513Z,25.12
2019-04-16T09:49:38.462Z,15.18
2019-04-16T09:52:11.384Z,16.85
2019-04-16T09:54:45.253Z,9.00
2019-04-16T09:57:18.048Z,14.90
2019-04-16T09:59:53.462Z,25.30
2019-04-16T10:02:27.899Z,15.55
2019-04-16T10:05:01.162Z,19.05
2019-04-16T10:07:39.802Z,10.32
2019-04-16T10:10:12.670Z,23.32
2019-04-16T10:12:49.837Z,14.60
2019-04-16T10:15:26.317Z,8.80
2019-04-16T10:18:01.588Z,20.57
2019-04-16T10:20:36.412Z,6.75
2019-04-16T10:23:12.726Z,8.13
2019-04-16T10:25:54.176Z,7.58
2019-04-16T10:28:37.112Z,7.60
2019-04-16T10:31:12.838Z,12.28
2019-04-16T10:33:46.193Z,16.80
2019-04-16T10:36:31.218Z,17.73
2019-04-16T10:39:06.204Z,11.95
2019-04-16T10:41:49.361Z,20.32
2019-04-16T10:44:25.832Z,14.60
2019-04-16T10:47:16.600Z,16.40
2019-04-16T10:49:51.957Z,16.97
2019-04-16T10:52:42.442Z,13.40
2019-04-16T10:55:35.806Z,17.02
2019-04-16T10:58:13.676Z,15.83
2019-04-16T11:01:05.540Z,15.45
2019-04-16T11:03:40.683Z,18.23
2019-04-16T11:06:15.490Z,19.80
2019-04-16T11:08:47.499Z,23.40
2019-04-16T11:11:19.515Z,27.67
2019-04-16T11:13:59.831Z,13.35
2019-04-16T11:16:26.199Z,16.35
2019-04-16T11:19:01.131Z,10.55
2019-04-16T11:21:32.988Z,7.42
2019-04-16T11:24:05.000Z,13.78
2019-04-16T11:26:40.012Z,14.58
2019-04-16T11:29:12.967Z,9.40
2019-04-16T11:31:45.177Z,7.40
2019-04-16T11:34:17.798Z,10.00
2019-04-16T11:37:08.245Z,8.10
2019-04-16T11:39:58.238Z,6.60
2019-04-16T11:42:30.313Z,7.65
2019-04-16T11:45:02.689Z,7.47
2019-04-16T11:47:34.905Z,6.75
2019-04-16T11:50:08.081Z,12.70
2019-04-16T11:52:41.858Z,8.50
2019-04-16T11:55:14.889Z,7.58
2019-04-16T11:57:48.454Z,9.38
2019-04-16T12:00:40.814Z,7.45
2019-04-16T12:03:36.566Z,7.40
2019-04-16T12:06:29.897Z,7.65
2019-04-16T12:09:20.507Z,8.28
2019-04-16T12:11:57.108Z,6.72
2019-04-16T12:14:34.891Z,15.98
2019-04-16T12:17:15.674Z,13.05
2019-04-16T12:20:06.282Z,13.60
2019-04-16T12:22:45.508Z,39.55
2019-04-16T12:25:30.656Z,43.90
2019-04-16T12:30:58.232Z,15.72
2019-04-16T12:33:38.345Z,14.68
2019-04-16T12:36:28.514Z,15.58
2019-04-16T12:39:08.159Z,13.48
2019-04-16T12:42:02.106Z,16.67
2019-04-16T12:44:46.103Z,15.08
2019-04-16T12:47:22.694Z,15.35
2019-04-16T12:50:17.205Z,16.25
2019-04-16T12:52:55.103Z,17.20
2019-04-16T12:55:31.729Z,15.10
2019-04-16T12:58:25.819Z,15.00
2019-04-16T13:01:19.575Z,17.57
2019-04-16T13:03:52.775Z,18.30
2019-04-16T13:06:29.122Z,24.07
2019-04-16T13:09:08.571Z,20.65
2019-04-16T13:11:47.206Z,14.25
2019-04-16T13:14:37.814Z,15.48
2019-04-16T13:17:18.780Z,14.90
2019-04-16T13:20:06.980Z,16.75
2019-04-16T13:23:00.496Z,14.43
2019-04-16T13:25:47.948Z,15.63
2019-04-16T13:28:23.835Z,16.80
2019-04-16T13:30:57.981Z,14.45
2019-04-16T13:33:29.920Z,11.95
2019-04-16T13:36:03.357Z,12.07
2019-04-16T13:38:40.342Z,20.50
2019-04-16T13:41:26.336Z,23.90
2019-04-16T13:43:59.308Z,20.52
2019-04-16T13:46:37.131Z,21.87
2019-04-16T13:49:17.424Z,19.25
2019-04-16T13:51:58.257Z,14.90
2019-04-16T13:54:34.332Z,15.55
2019-04-16T13:57:08.493Z,19.15
2019-04-16T14:00:04.373Z,15.93
2019-04-16T14:03:01.153Z,16.90
2019-04-16T14:05:37.529Z,17.98
2019-04-16T14:10:50.368Z,21.07
2019-04-16T14:13:24.392Z,21.42
2019-04-16T14:15:57.632Z,19.07
2019-04-16T14:21:49.993Z,18.77
2019-04-16T14:24:22.277Z,19.23
2019-04-16T14:26:55.114Z,14.78
2019-04-16T14:29:26.901Z,17.80
2019-04-16T14:31:58.787Z,18.15
2019-04-16T14:34:35.463Z,19.32
2019-04-16T14:37:08.452Z,18.82
2019-04-16T14:39:42.047Z,15.43
2019-04-16T14:42:14.865Z,19.57
2019-04-16T14:44:49.226Z,21.42
2019-04-16T14:47:22.730Z,19.98
2019-04-16T14:49:54.718Z,17.92
2019-04-16T14:52:26.437Z,15.58
2019-04-16T14:55:05.776Z,16.73
2019-04-16T14:57:42.434Z,13.25
2019-04-16T15:00:23.101Z,16.73
2019-04-16T15:03:05.836Z,15.38
2019-04-16T15:05:55.688Z,14.40
2019-04-16T15:08:31.979Z,11.60
2019-04-16T15:11:21.593Z,12.15
2019-04-16T15:14:13.331Z,13.68
2019-04-16T15:17:02.821Z,15.48
2019-04-16T15:19:36.076Z,14.95
2019-04-16T15:22:25.066Z,12.75
2019-04-16T15:25:14.471Z,14.40
2019-04-16T15:28:00.928Z,13.65
2019-04-16T15:30:39.998Z,13.08
2019-04-16T15:33:39.048Z,19.77
2019-04-16T15:36:22.892Z,16.90
2019-04-16T15:39:08.213Z,16.48
2019-04-16T15:41:48.715Z,17.75
2019-04-16T15:44:31.586Z,19.40
2019-04-16T15:47:05.727Z,21.20
2019-04-16T15:49:39.284Z,22.17
2019-04-16T15:52:29.042Z,20.75
2019-04-16T15:55:02.890Z,21.82
2019-04-16T15:57:52.925Z,19.25
2019-04-16T16:00:48.675Z,21.20
2019-04-16T16:03:28.112Z,25.32
2019-04-16T16:06:01.378Z,22.25
2019-04-16T16:08:35.874Z,25.10
2019-04-16T16:11:09.505Z,21.87
2019-04-16T16:13:41.208Z,27.60
2019-04-16T16:16:18.060Z,26.20
2019-04-16T16:18:50.124Z,24.82
2019-04-16T16:21:22.978Z,24.67
2019-04-16T16:23:55.713Z,24.15
2019-04-16T16:26:27.433Z,31.48
2019-04-16T16:28:59.195Z,27.00
2019-04-16T16:31:35.073Z,25.82
2019-04-16T16:34:08.038Z,26.52
2019-04-16T16:36:40.734Z,26.25
2019-04-16T16:39:12.371Z,24.18
2019-04-16T16:41:46.606Z,27.62
2019-04-16T16:44:18.614Z,29.52
2019-04-16T16:46:57.308Z,28.67
2019-04-16T16:49:28.245Z,28.57
2019-04-16T16:52:18.157Z,25.95
2019-04-16T16:54:53.440Z,28.20
2019-04-16T16:57:30.763Z,31.70
2019-04-16T17:00:23.895Z,27.05
2019-04-16T17:03:00.700Z,37.17
2019-04-16T17:05:37.323Z,28.77
2019-04-16T17:08:08.967Z,26.42
2019-04-16T17:10:42.559Z,27.85
2019-04-16T17:13:16.974Z,26.48
2019-04-16T17:15:49.611Z,34.20
2019-04-16T17:18:22.006Z,29.50
2019-04-16T17:20:53.958Z,24.57
2019-04-16T17:23:26.167Z,31.77
2019-04-16T17:25:59.057Z,30.52
2019-04-16T17:28:30.775Z,35.88
2019-04-16T17:31:02.593Z,26.50
2019-04-16T17:33:34.238Z,25.48
2019-04-16T17:36:06.440Z,25.68
2019-04-16T17:38:38.048Z,31.70
2019-04-16T17:41:11.776Z,27.22
2019-04-16T17:43:59.884Z,31.85
2019-04-16T17:46:24.733Z,25.57
2019-04-16T17:51:32.816Z,25.72
2019-04-16T17:54:13.085Z,31.62
2019-04-16T17:56:46.456Z,27.85
2019-04-16T17:59:22.015Z,28.17
2019-04-16T18:01:55.258Z,28.67
2019-04-16T18:04:38.307Z,35.60
2019-04-16T18:07:18.818Z,27.10
2019-04-16T18:10:07.314Z,25.95
2019-04-16T18:12:57.144Z,22.42
2019-04-16T18:15:30.454Z,25.75
2019-04-16T18:18:16.944Z,22.50
2019-04-16T18:21:06.637Z,24.12
2019-04-16T18:23:44.086Z,26.70
2019-04-16T18:26:17.295Z,25.50
2019-04-16T18:28:56.641Z,29.50
2019-04-16T18:31:39.190Z,31.05
2019-04-16T18:34:24.414Z,24.07
2019-04-16T18:39:51.125Z,27.65
2019-04-16T18:42:24.298Z,24.50
2019-04-16T18:45:03.502Z,31.62
2019-04-16T18:48:01.531Z,26.70
2019-04-16T18:50:26.018Z,27.65
2019-04-16T18:52:56.372Z,33.55
2019-04-16T18:55:27.973Z,29.60
2019-04-16T18:57:59.424Z,27.55
2019-04-16T19:00:33.187Z,30.32
2019-04-16T19:03:05.108Z,37.30
2019-04-16T19:05:36.894Z,35.25
2019-04-16T19:08:08.735Z,40.50
2019-04-16T19:10:40.435Z,38.83
2019-04-16T19:13:12.305Z,38.30
2019-04-16T19:15:43.854Z,39.13
2019-04-16T19:18:19.860Z,41.83
2019-04-16T19:20:51.874Z,37.03
2019-04-16T19:23:22.421Z,47.25
2019-04-16T19:25:55.473Z,41.92
2019-04-16T19:28:28.814Z,38.20
2019-04-16T19:31:02.425Z,36.42
2019-04-16T19:33:38.114Z,35.70
2019-04-16T19:36:07.146Z,37.53
2019-04-16T19:38:40.641Z,34.75
2019-04-16T19:41:12.655Z,36.77
2019-04-16T19:43:44.360Z,38.30
2019-04-16T19:46:16.355Z,33.80
2019-04-16T19:48:48.150Z,31.17
2019-04-16T19:51:20.058Z,33.80
2019-04-16T19:53:51.686Z,33.28
2019-04-16T19:56:23.459Z,34.90
2019-04-16T19:58:55.265Z,35.33
2019-04-16T20:01:26.929Z,41.37
2019-04-16T20:03:58.600Z,39.78
2019-04-16T20:06:30.167Z,47.25
2019-04-16T20:09:02.123Z,46.15
2019-04-16T20:11:35.296Z,45.48
2019-04-16T20:16:39.172Z,60.70
2019-04-16T20:19:10.729Z,70.75
2019-04-16T20:21:42.323Z,59.13
2019-04-16T20:24:13.930Z,52.05
2019-04-16T20:26:45.704Z,53.55
2019-04-16T20:29:17.309Z,40.48
2019-04-16T20:31:48.903Z,40.43
2019-04-16T20:34:20.521Z,32.93
2019-04-16T20:36:54.747Z,37.28
2019-04-16T20:39:25.319Z,41.18
2019-04-16T20:41:59.643Z,39.50
2019-04-16T20:44:31.249Z,40.90
2019-04-16T20:47:07.929Z,40.67
2019-04-16T20:49:37.080Z,48.15
2019-04-16T20:52:08.595Z,41.68
2019-04-16T20:54:44.306Z,48.17
2019-04-16T20:57:15.933Z,39.98
2019-04-16T20:59:48.893Z,40.30
2019-04-16T21:02:20.616Z,41.28
2019-04-16T21:04:52.173Z,40.92
2019-04-16T21:07:23.719Z,38.78
2019-04-16T21:09:55.248Z,41.48
2019-04-16T21:12:27.205Z,37.95
2019-04-16T21:14:59.747Z,39.55
2019-04-16T21:17:31.853Z,41.95
2019-04-16T21:20:04.045Z,56.98
2019-04-16T21:22:35.587Z,57.40
2019-04-16T21:25:12.560Z,67.05
2019-04-16T21:27:57.791Z,64.75
2019-04-16T21:30:29.366Z,67.08
2019-04-16T21:33:08.928Z,79.70
2019-04-16T21:35:42.082Z,70.50
2019-04-16T21:38:21.444Z,70.97
2019-04-16T21:40:56.352Z,71.62
2019-04-16T21:43:27.235Z,67.05
2019-04-16T21:45:59.120Z,57.30
2019-04-16T21:48:30.829Z,53.17
2019-04-16T21:51:02.362Z,43.78
2019-04-16T21:53:33.884Z,37.23
2019-04-16T21:56:07.838Z,33.78
2019-04-16T21:58:38.632Z,33.02
2019-04-16T22:01:11.725Z,34.27
2019-04-16T22:03:45.741Z,32.38
2019-04-16T22:06:20.303Z,31.05
2019-04-16T22:08:51.567Z,33.13
2019-04-16T22:11:26.675Z,30.02
2019-04-16T22:13:58.215Z,35.23
2019-04-16T22:16:30.585Z,38.23
2019-04-16T22:19:04.392Z,33.75
2019-04-16T22:21:35.921Z,32.80
2019-04-16T22:24:07.408Z,27.07
2019-04-16T22:26:38.973Z,31.87
2019-04-16T22:29:15.442Z,28.20
2019-04-16T22:31:45.809Z,31.30
2019-04-16T22:34:17.268Z,32.25
2019-04-16T22:36:48.788Z,29.02
2019-04-16T22:39:27.903Z,27.35
2019-04-16T22:42:17.570Z,28.12
2019-04-16T22:44:50.656Z,24.72
2019-04-16T22:47:29.797Z,25.52
2019-04-16T22:50:15.078Z,20.97
2019-04-16T22:52:34.720Z,24.98
2019-04-16T22:55:06.785Z,22.42
2019-04-16T22:57:39.430Z,25.48
2019-04-16T23:00:19.396Z,23.62
2019-04-16T23:02:50.850Z,29.85
2019-04-16T23:05:23.401Z,22.65
2019-04-16T23:07:55.034Z,28.85
2019-04-16T23:10:26.579Z,24.67
2019-04-16T23:13:00.670Z,27.65
2019-04-16T23:15:33.402Z,25.80
2019-04-16T23:18:04.892Z,31.55
2019-04-16T23:20:37.152Z,30.52
2019-04-16T23:23:09.229Z,34.98
2019-04-16T23:25:40.842Z,28.50
2019-04-16T23:28:13.376Z,40.23
2019-04-16T23:30:47.931Z,37.25
2019-04-16T23:33:20.567Z,40.90
2019-04-16T23:35:52.323Z,42.40
2019-04-16T23:38:23.926Z,46.05
2019-04-16T23:40:55.881Z,46.13
2019-04-16T23:43:32.032Z,41.88
2019-04-16T23:46:23.656Z,50.12
2019-04-16T23:49:16.518Z,32.55
2019-04-16T23:52:06.644Z,39.33
2019-04-16T23:54:40.751Z,44.48
2019-04-16T23:59:49.696Z,35.85
